Time;durP1;ratioP1;P1;durP2;ratioP2;P2;SDS_P1;SDS_P2;PMS_P1;PMS_P2;Temp;Humidity;BMP_temperature;BMP_pressure;BME280_temperature;BME280_humidity;BME280_pressure;Samples;Min_cycle;Max_cycle;Signal;HPM_P1;HPM_P2
2022/05/30 00:00:07;;;;;;;5.70;2.33;;;8.60;99.90;;;;;;5090767;28;20039;-64
2022/05/30 00:02:33;;;;;;;6.53;2.42;;;8.60;99.90;;;;;;5078669;28;20036;-64
2022/05/30 00:05:00;;;;;;;7.10;2.33;;;8.60;99.90;;;;;;5077859;28;20104;-64
2022/05/30 00:07:25;;;;;;;6.35;2.30;;;8.60;99.90;;;;;;5072730;28;20076;-64
2022/05/30 00:09:51;;;;;;;5.88;2.50;;;8.70;99.90;;;;;;5081627;28;20102;-64
2022/05/30 00:12:17;;;;;;;5.60;2.00;;;8.70;99.90;;;;;;5090115;28;20090;-64
2022/05/30 00:14:42;;;;;;;6.93;2.30;;;8.70;99.90;;;;;;5094100;28;20456;-65
2022/05/30 00:17:08;;;;;;;6.75;2.08;;;8.70;99.90;;;;;;5094774;28;20082;-64
2022/05/30 00:19:38;;;;;;;5.80;1.95;;;8.70;99.90;;;;;;5090648;28;20036;-64
2022/05/30 00:22:05;;;;;;;6.05;1.95;;;8.70;99.90;;;;;;5093655;28;20123;-64
2022/05/30 00:24:32;;;;;;;5.57;2.05;;;8.70;99.90;;;;;;5094011;28;20040;-65
2022/05/30 00:26:58;;;;;;;5.25;2.50;;;8.70;99.90;;;;;;5087005;28;20044;-64
2022/05/30 00:29:23;;;;;;;5.72;2.45;;;8.70;99.90;;;;;;5077777;28;20392;-64
2022/05/30 00:31:49;;;;;;;4.07;2.15;;;8.70;99.90;;;;;;5093824;28;20112;-65
2022/05/30 00:34:15;;;;;;;4.30;2.72;;;8.70;99.90;;;;;;5094040;28;20492;-66
2022/05/30 00:36:41;;;;;;;4.43;2.10;;;8.70;99.90;;;;;;5083905;28;20024;-65
2022/05/30 00:39:06;;;;;;;6.80;2.53;;;8.70;99.90;;;;;;5093544;28;20039;-65
2022/05/30 00:41:32;;;;;;;4.88;2.28;;;8.70;99.90;;;;;;5094173;28;20032;-65
2022/05/30 00:43:58;;;;;;;5.30;2.05;;;8.70;99.90;;;;;;5086788;28;20098;-66
2022/05/30 00:46:24;;;;;;;4.30;2.10;;;8.60;99.90;;;;;;5088990;28;20044;-65
2022/05/30 00:49:03;;;;;;;4.38;2.13;;;8.50;99.90;;;;;;5074943;28;20051;-66
2022/05/30 00:51:33;;;;;;;4.32;2.17;;;8.50;99.90;;;;;;5076122;28;20123;-65
2022/05/30 00:54:01;;;;;;;7.63;2.60;;;8.40;99.90;;;;;;5082432;28;20063;-65
2022/05/30 00:56:37;;;;;;;8.13;3.05;;;8.30;99.90;;;;;;5086506;28;20036;-65
2022/05/30 00:59:04;;;;;;;8.93;3.95;;;8.30;99.90;;;;;;5092924;28;20116;-65
2022/05/30 01:01:31;;;;;;;10.23;4.00;;;8.20;99.90;;;;;;5084375;28;20158;-65
2022/05/30 01:06:45;;;;;;;7.03;3.00;;;8.10;99.90;;;;;;5073415;28;20496;-65
2022/05/30 01:09:14;;;;;;;12.45;3.40;;;8.10;99.90;;;;;;5073105;28;20072;-65
2022/05/30 01:11:47;;;;;;;8.88;3.10;;;8.00;99.90;;;;;;5080728;28;20036;-65
2022/05/30 01:14:13;;;;;;;6.45;3.38;;;8.00;99.90;;;;;;5089563;28;20051;-65
2022/05/30 01:16:38;;;;;;;9.43;3.40;;;7.90;99.90;;;;;;5087075;28;20051;-65
2022/05/30 01:19:08;;;;;;;11.25;3.10;;;7.80;99.90;;;;;;5080683;28;20036;-65
2022/05/30 01:21:54;;;;;;;7.38;3.33;;;7.70;99.90;;;;;;5092114;28;20043;-65
2022/05/30 01:24:43;;;;;;;9.00;3.92;;;7.70;99.90;;;;;;5092530;28;20044;-65
2022/05/30 01:27:28;;;;;;;8.43;3.50;;;7.60;99.90;;;;;;5078443;28;20048;-65
2022/05/30 01:30:00;;;;;;;8.70;3.40;;;7.50;99.90;;;;;;5086041;28;20036;-65
2022/05/30 01:32:26;;;;;;;10.32;3.80;;;7.50;99.90;;;;;;5093034;28;20036;-65
2022/05/30 01:34:51;;;;;;;10.10;4.22;;;7.50;99.90;;;;;;5080680;28;20089;-65
2022/05/30 01:37:17;;;;;;;13.43;3.75;;;7.50;99.90;;;;;;5092511;28;20048;-65
2022/05/30 01:39:43;;;;;;;9.55;3.85;;;7.60;99.90;;;;;;5092767;28;20088;-65
2022/05/30 01:42:08;;;;;;;8.63;3.28;;;7.60;99.90;;;;;;5092946;28;20036;-65
2022/05/30 01:44:34;;;;;;;6.53;3.40;;;7.60;99.90;;;;;;5089344;28;20136;-65
2022/05/30 01:47:00;;;;;;;9.65;3.88;;;7.60;99.90;;;;;;5087785;28;20051;-65
2022/05/30 01:49:26;;;;;;;10.23;3.53;;;7.60;99.90;;;;;;5092309;28;20043;-65
2022/05/30 01:51:54;;;;;;;6.30;3.25;;;7.60;99.90;;;;;;5062363;28;20131;-65
2022/05/30 01:54:20;;;;;;;8.18;3.53;;;7.60;99.90;;;;;;5089452;28;20406;-65
2022/05/30 01:56:46;;;;;;;10.07;3.58;;;7.50;99.90;;;;;;5092792;28;20093;-65
2022/05/30 01:59:12;;;;;;;8.38;3.35;;;7.50;99.90;;;;;;5066533;28;20446;-65
2022/05/30 02:01:39;;;;;;;11.82;3.28;;;7.40;99.90;;;;;;5089924;28;20111;-66
2022/05/30 02:04:05;;;;;;;12.77;3.70;;;7.30;99.90;;;;;;5092390;28;20036;-65
2022/05/30 02:06:32;;;;;;;10.52;3.80;;;7.30;99.90;;;;;;5089541;28;20453;-65
2022/05/30 02:08:57;;;;;;;8.63;3.83;;;7.30;99.90;;;;;;5086249;28;20052;-66
2022/05/30 02:11:24;;;;;;;11.95;3.90;;;7.30;99.90;;;;;;5089602;28;20036;-65
2022/05/30 02:13:50;;;;;;;10.20;3.70;;;7.20;99.90;;;;;;5092424;28;20554;-66
2022/05/30 02:19:03;;;;;;;9.73;3.65;;;7.30;99.90;;;;;;5091691;28;20036;-65
2022/05/30 02:21:31;;;;;;;9.18;3.67;;;7.20;99.90;;;;;;5092036;28;20434;-65
2022/05/30 02:23:57;;;;;;;8.82;3.40;;;7.20;99.90;;;;;;5064274;28;20419;-65
2022/05/30 02:26:22;;;;;;;7.40;3.65;;;7.20;99.90;;;;;;5088257;28;20055;-65
2022/05/30 02:28:48;;;;;;;13.98;4.45;;;7.20;99.90;;;;;;5091245;28;20043;-65
2022/05/30 02:31:14;;;;;;;8.00;3.50;;;7.30;99.90;;;;;;5092160;28;20384;-65
2022/05/30 02:36:39;;;;;;;10.68;3.72;;;7.40;99.90;;;;;;5090512;28;20040;-63
2022/05/30 02:39:09;;;;;;;11.60;3.90;;;7.40;99.90;;;;;;5091187;28;20061;-63
2022/05/30 02:41:36;;;;;;;9.57;3.42;;;7.30;99.90;;;;;;5084177;28;20036;-63
2022/05/30 02:44:03;;;;;;;8.90;4.05;;;7.30;99.90;;;;;;5086469;28;20047;-63
2022/05/30 02:46:28;;;;;;;10.82;3.72;;;7.30;99.90;;;;;;5091591;28;20039;-63
2022/05/30 02:48:54;;;;;;;7.50;3.53;;;7.30;99.90;;;;;;5082070;28;20085;-63
2022/05/30 02:51:20;;;;;;;9.93;3.55;;;7.30;99.90;;;;;;5090594;28;20032;-63
2022/05/30 02:53:46;;;;;;;7.43;3.38;;;7.30;99.90;;;;;;5073152;28;20098;-63
2022/05/30 02:56:12;;;;;;;12.30;3.65;;;7.30;99.90;;;;;;5086197;28;20058;-63
2022/05/30 02:58:38;;;;;;;7.93;3.70;;;7.30;99.90;;;;;;5076668;28;20051;-63
2022/05/30 03:01:04;;;;;;;7.85;3.47;;;7.30;99.90;;;;;;5091254;28;20036;-63
2022/05/30 03:03:30;;;;;;;9.63;3.85;;;7.30;99.90;;;;;;5073021;28;20044;-63
2022/05/30 03:05:55;;;;;;;8.43;3.80;;;7.20;99.90;;;;;;5082181;28;20047;-63
2022/05/30 03:08:21;;;;;;;12.55;4.13;;;7.20;99.90;;;;;;5081213;28;20119;-63
2022/05/30 03:10:47;;;;;;;7.95;3.67;;;7.20;99.90;;;;;;5091446;28;20051;-63
2022/05/30 03:13:13;;;;;;;7.75;3.70;;;7.20;99.90;;;;;;5081684;28;20044;-63
2022/05/30 03:15:38;;;;;;;9.15;3.35;;;7.20;99.90;;;;;;5084723;28;20119;-63
2022/05/30 03:18:05;;;;;;;8.93;3.95;;;7.20;99.90;;;;;;5085059;28;20043;-63
2022/05/30 03:20:31;;;;;;;9.90;4.32;;;7.20;99.90;;;;;;5088668;28;20036;-63
2022/05/30 03:22:57;;;;;;;7.70;3.65;;;7.10;99.90;;;;;;5090987;28;20166;-63
2022/05/30 03:25:22;;;;;;;9.52;4.00;;;7.20;99.90;;;;;;5091545;28;20032;-63
2022/05/30 03:27:48;;;;;;;10.93;4.47;;;7.10;99.90;;;;;;5081624;28;20129;-63
2022/05/30 03:30:14;;;;;;;7.47;3.58;;;7.10;99.90;;;;;;5080769;28;20028;-63
2022/05/30 03:32:41;;;;;;;12.07;4.05;;;7.10;99.90;;;;;;5070329;28;20506;-63
2022/05/30 03:35:07;;;;;;;9.68;4.22;;;7.00;99.90;;;;;;5082289;28;20503;-63
2022/05/30 03:37:36;;;;;;;9.55;3.97;;;7.00;99.90;;;;;;5089568;28;20069;-63
2022/05/30 03:40:03;;;;;;;11.15;4.10;;;6.90;99.90;;;;;;5090865;28;20074;-63
2022/05/30 03:42:29;;;;;;;10.80;4.22;;;6.90;99.90;;;;;;5091037;28;20047;-63
2022/05/30 03:44:54;;;;;;;10.68;4.35;;;6.90;99.90;;;;;;5079201;28;20040;-63
2022/05/30 03:47:20;;;;;;;8.88;4.05;;;6.90;99.90;;;;;;5082206;28;20119;-63
2022/05/30 03:49:46;;;;;;;10.90;4.20;;;6.80;99.90;;;;;;5084758;28;20115;-63
2022/05/30 03:52:14;;;;;;;13.30;4.43;;;6.80;99.90;;;;;;5092557;28;20035;-63
2022/05/30 03:54:40;;;;;;;10.75;4.13;;;6.80;99.90;;;;;;5091003;28;20043;-63
2022/05/30 03:57:06;;;;;;;13.00;4.20;;;6.80;99.90;;;;;;5085258;28;20032;-63
2022/05/30 03:59:31;;;;;;;8.05;4.60;;;6.80;99.90;;;;;;5091045;28;20089;-63
2022/05/30 04:01:57;;;;;;;12.52;4.63;;;6.80;99.90;;;;;;5093670;28;20036;-63
2022/05/30 04:04:23;;;;;;;10.30;4.60;;;6.80;99.90;;;;;;5082238;28;20041;-63
2022/05/30 04:06:48;;;;;;;14.48;4.55;;;6.80;99.90;;;;;;5093464;28;20879;-63
2022/05/30 04:09:14;;;;;;;10.77;4.40;;;6.80;99.90;;;;;;5093917;28;20051;-63
2022/05/30 04:11:40;;;;;;;9.02;4.57;;;6.80;99.90;;;;;;5068791;28;20047;-63
2022/05/30 04:14:05;;;;;;;10.15;4.57;;;6.80;99.90;;;;;;5087180;28;20044;-63
2022/05/30 04:16:31;;;;;;;10.60;5.63;;;6.80;99.90;;;;;;5094350;28;20035;-63
2022/05/30 04:18:57;;;;;;;9.00;4.25;;;6.80;99.90;;;;;;5087983;28;21181;-63
2022/05/30 04:21:22;;;;;;;9.90;4.45;;;6.80;99.90;;;;;;5082377;28;20111;-63
2022/05/30 04:23:48;;;;;;;9.43;4.57;;;6.70;99.90;;;;;;5090321;28;20404;-63
2022/05/30 04:26:17;;;;;;;13.40;4.30;;;6.70;99.90;;;;;;5093997;28;20113;-63
2022/05/30 04:28:42;;;;;;;10.13;4.28;;;6.70;99.90;;;;;;5088601;28;20040;-63
2022/05/30 04:31:13;;;;;;;9.48;4.10;;;6.70;99.90;;;;;;5082022;28;20110;-63
2022/05/30 04:33:42;;;;;;;8.68;4.32;;;6.70;99.90;;;;;;5093363;28;20484;-63
2022/05/30 04:36:12;;;;;;;9.77;4.30;;;6.60;99.90;;;;;;5094441;28;20492;-63
2022/05/30 04:38:38;;;;;;;13.10;4.60;;;6.70;99.90;;;;;;5085647;28;20048;-63
2022/05/30 04:41:04;;;;;;;10.85;4.72;;;6.70;99.90;;;;;;5092071;28;20120;-63
2022/05/30 04:43:29;;;;;;;9.88;4.50;;;6.70;99.90;;;;;;5093864;28;20442;-63
2022/05/30 04:46:12;;;;;;;10.57;4.88;;;6.80;99.90;;;;;;5082604;28;20048;-63
2022/05/30 04:48:38;;;;;;;10.18;4.97;;;6.90;99.90;;;;;;5084721;28;20047;-63
2022/05/30 04:51:03;;;;;;;9.88;4.50;;;6.90;99.90;;;;;;5093472;28;20097;-65
2022/05/30 04:53:30;;;;;;;9.95;4.38;;;7.00;99.90;;;;;;5088832;28;20039;-65
2022/05/30 04:55:56;;;;;;;9.73;4.65;;;7.10;99.90;;;;;;5086967;28;20040;-64
2022/05/30 04:58:22;;;;;;;14.90;5.45;;;7.20;99.90;;;;;;5093295;28;20036;-63
2022/05/30 05:00:47;;;;;;;10.55;5.32;;;7.30;99.90;;;;;;5093175;28;20047;-63
2022/05/30 05:03:13;;;;;;;10.95;5.00;;;7.50;99.90;;;;;;5078781;28;20036;-64
2022/05/30 05:05:38;;;;;;;11.55;5.13;;;7.60;99.90;;;;;;5071595;28;20043;-64
2022/05/30 05:08:16;;;;;;;9.65;4.90;;;7.70;99.90;;;;;;5093343;28;20046;-64
2022/05/30 05:10:59;;;;;;;11.75;4.60;;;7.80;99.90;;;;;;5082689;28;20029;-64
2022/05/30 05:13:25;;;;;;;9.57;4.53;;;7.90;99.90;;;;;;5090206;28;20361;-64
2022/05/30 05:15:55;;;;;;;9.55;4.43;;;8.00;99.90;;;;;;5093256;28;20043;-64
2022/05/30 05:18:21;;;;;;;10.50;4.47;;;8.10;99.90;;;;;;5072166;28;20040;-64
2022/05/30 05:20:47;;;;;;;8.38;4.18;;;8.20;99.90;;;;;;5058309;28;20036;-64
2022/05/30 05:23:12;;;;;;;9.30;4.10;;;8.30;99.90;;;;;;5084658;28;20472;-64
2022/05/30 05:25:39;;;;;;;9.70;4.15;;;8.40;99.90;;;;;;5091423;28;20032;-64
2022/05/30 05:28:06;;;;;;;6.88;4.03;;;8.40;99.90;;;;;;5088882;28;20042;-64
2022/05/30 05:30:32;;;;;;;9.60;4.28;;;8.40;99.90;;;;;;5067982;28;20472;-64
2022/05/30 05:32:58;;;;;;;11.32;4.40;;;8.50;99.90;;;;;;5092766;28;20032;-64
2022/05/30 05:35:23;;;;;;;13.10;4.53;;;8.40;99.90;;;;;;5088704;28;20119;-64
2022/05/30 05:37:49;;;;;;;9.77;4.32;;;8.40;99.90;;;;;;5082444;28;20036;-63
2022/05/30 05:40:14;;;;;;;12.68;4.50;;;8.30;99.90;;;;;;5088344;28;20480;-65
2022/05/30 05:42:40;;;;;;;8.75;4.28;;;8.30;99.90;;;;;;5089573;28;20056;-63
2022/05/30 05:45:07;;;;;;;11.70;4.15;;;8.30;99.90;;;;;;5083492;28;20423;-63
2022/05/30 05:47:34;;;;;;;11.18;4.68;;;8.30;99.90;;;;;;5091628;28;20384;-63
2022/05/30 05:50:00;;;;;;;10.25;4.65;;;8.40;99.90;;;;;;5092332;28;20035;-63
2022/05/30 05:52:28;;;;;;;7.25;4.75;;;8.50;99.90;;;;;;5092684;28;20488;-63
2022/05/30 05:54:57;;;;;;;10.25;4.53;;;8.60;99.90;;;;;;5074432;28;20048;-63
2022/05/30 05:57:25;;;;;;;12.02;4.80;;;8.80;99.90;;;;;;5081305;28;20460;-63
2022/05/30 05:59:51;;;;;;;10.73;4.93;;;8.90;99.90;;;;;;5088547;28;20028;-62
2022/05/30 06:02:17;;;;;;;11.75;5.13;;;9.00;99.90;;;;;;5076500;28;20043;-63
2022/05/30 06:04:44;;;;;;;7.93;4.50;;;9.20;99.90;;;;;;5091920;28;20036;-62
2022/05/30 06:07:10;;;;;;;9.13;4.20;;;9.40;99.90;;;;;;5073709;28;20047;-62
2022/05/30 06:42:11;;;;;;;6.65;2.92;;;10.90;99.90;;;;;;5109212;27;20771;-61
2022/05/30 06:44:38;;;;;;;4.63;2.30;;;11.60;99.90;;;;;;5109509;28;20553;-62
2022/05/30 06:47:04;;;;;;;6.32;3.00;;;11.60;99.90;;;;;;5109330;28;20056;-62
2022/05/30 06:49:30;;;;;;;7.28;3.00;;;11.60;99.90;;;;;;5109320;28;20114;-61
2022/05/30 06:51:56;;;;;;;3.95;2.50;;;11.70;99.90;;;;;;5108786;28;20028;-61
2022/05/30 06:54:22;;;;;;;7.97;2.45;;;11.60;99.90;;;;;;5109491;28;20032;-61
2022/05/30 06:59:32;;;;;;;5.32;2.22;;;11.50;99.90;;;;;;5109285;28;20040;-62
2022/05/30 07:02:04;;;;;;;3.25;1.60;;;11.40;99.90;;;;;;5107386;28;20036;-62
2022/05/30 07:04:31;;;;;;;3.95;1.88;;;11.30;99.90;;;;;;5109028;28;20414;-63
2022/05/30 07:06:57;;;;;;;5.82;2.25;;;11.20;99.90;;;;;;5107866;28;20043;-62
2022/05/30 07:09:22;;;;;;;4.68;2.08;;;11.10;99.90;;;;;;5109044;28;20039;-63
2022/05/30 07:11:49;;;;;;;4.97;2.00;;;11.10;99.90;;;;;;5108699;28;20556;-62
2022/05/30 07:14:16;;;;;;;6.63;2.20;;;11.20;99.90;;;;;;5107898;28;20031;-62
2022/05/30 07:16:42;;;;;;;7.03;2.05;;;11.20;99.90;;;;;;5108498;28;20406;-63
2022/05/30 07:19:09;;;;;;;3.75;2.00;;;11.30;99.90;;;;;;5108914;28;20495;-62
2022/05/30 07:21:35;;;;;;;4.50;1.63;;;11.40;99.90;;;;;;5106909;28;20040;-63
2022/05/30 07:24:00;;;;;;;3.55;1.77;;;11.50;99.90;;;;;;5108653;28;20123;-62
2022/05/30 07:26:26;;;;;;;3.90;1.70;;;11.70;99.90;;;;;;5108646;28;20127;-62
2022/05/30 07:28:51;;;;;;;4.28;1.40;;;11.90;99.90;;;;;;5108687;28;20047;-63
2022/05/30 07:31:20;;;;;;;2.83;1.30;;;12.00;99.90;;;;;;5107818;28;20047;-62
2022/05/30 07:33:48;;;;;;;4.38;1.35;;;12.10;99.90;;;;;;5108448;28;20116;-62
2022/05/30 07:36:21;;;;;;;3.47;1.30;;;12.20;99.90;;;;;;5108467;28;20035;-62
2022/05/30 07:38:48;;;;;;;3.42;1.10;;;12.30;99.90;;;;;;5108486;28;20035;-62
2022/05/30 07:41:14;;;;;;;1.90;1.15;;;12.40;99.90;;;;;;5104873;28;20123;-63
2022/05/30 07:43:40;;;;;;;2.35;1.10;;;12.70;99.90;;;;;;5093231;28;20127;-63
2022/05/30 07:46:08;;;;;;;1.70;1.02;;;12.80;99.90;;;;;;5094751;28;20043;-63
2022/05/30 07:48:34;;;;;;;1.50;1.00;;;13.00;99.90;;;;;;5094797;28;20067;-63
2022/05/30 07:51:00;;;;;;;3.47;1.10;;;13.10;99.90;;;;;;5094267;28;20123;-62
2022/05/30 07:53:27;;;;;;;2.40;1.02;;;13.20;99.90;;;;;;5094123;28;20047;-62
2022/05/30 07:55:52;;;;;;;1.40;1.17;;;13.40;99.90;;;;;;5093716;28;20039;-62
2022/05/30 07:58:18;;;;;;;4.40;1.27;;;13.40;99.90;;;;;;5092339;28;20047;-62
2022/05/30 08:00:44;;;;;;;2.45;1.25;;;13.50;99.90;;;;;;5092102;28;20071;-62
2022/05/30 08:03:11;;;;;;;2.20;1.42;;;13.40;99.90;;;;;;5093717;28;20056;-62
2022/05/30 08:05:39;;;;;;;1.67;1.30;;;13.50;99.90;;;;;;5092964;28;20047;-63
2022/05/30 08:08:05;;;;;;;3.58;1.40;;;13.40;99.90;;;;;;5092594;28;20506;-62
2022/05/30 08:10:31;;;;;;;3.35;1.50;;;13.40;99.90;;;;;;5094161;28;20048;-62
2022/05/30 08:12:57;;;;;;;2.67;1.23;;;13.40;99.90;;;;;;5093866;28;20110;-62
2022/05/30 08:15:22;;;;;;;3.78;1.40;;;13.40;99.90;;;;;;5094074;28;20039;-62
2022/05/30 08:17:48;;;;;;;4.03;2.05;;;13.30;99.90;;;;;;5094331;28;20028;-62
2022/05/30 08:20:15;;;;;;;2.40;1.50;;;13.20;99.90;;;;;;5094179;28;20453;-62
2022/05/30 08:22:41;;;;;;;3.83;1.60;;;13.10;99.90;;;;;;5093826;28;20040;-62
2022/05/30 08:25:16;;;;;;;2.25;1.52;;;13.10;99.90;;;;;;5094040;28;20036;-62
2022/05/30 08:27:46;;;;;;;3.22;1.45;;;12.90;99.90;;;;;;5093908;28;20365;-62
2022/05/30 08:30:16;;;;;;;2.40;1.05;;;12.80;99.90;;;;;;5094098;28;20035;-63
2022/05/30 08:32:43;;;;;;;2.30;1.10;;;12.70;99.90;;;;;;5092088;28;20075;-63
2022/05/30 08:35:13;;;;;;;2.67;1.05;;;12.70;99.90;;;;;;5090799;28;20431;-62
2022/05/30 08:37:39;;;;;;;2.22;1.40;;;12.70;99.90;;;;;;5092468;28;20403;-62
2022/05/30 08:42:57;;;;;;;2.63;1.00;;;12.80;99.90;;;;;;5093722;28;20052;-62
2022/05/30 08:45:25;;;;;;;2.95;1.00;;;12.90;99.90;;;;;;5092805;28;20071;-63
2022/05/30 08:47:56;;;;;;;1.33;0.90;;;13.00;99.90;;;;;;5092384;28;20036;-62
2022/05/30 08:51:02;;;;;;;2.55;0.88;;;13.50;99.90;;;;;;5090111;28;20032;-63
2022/05/30 08:53:44;;;;;;;2.28;0.90;;;13.90;99.90;;;;;;5089971;28;20054;-63
2022/05/30 08:56:33;;;;;;;2.28;1.02;;;14.30;99.90;;;;;;5092173;28;20726;-63
2022/05/30 08:59:17;;;;;;;1.27;0.90;;;14.50;99.90;;;;;;5092040;28;20565;-63
2022/05/30 09:01:49;;;;;;;3.10;1.17;;;14.60;99.90;;;;;;5091818;28;20043;-63
2022/05/30 09:04:33;;;;;;;1.85;1.10;;;14.70;99.90;;;;;;5092047;28;20032;-63
2022/05/30 09:07:00;;;;;;;2.00;1.02;;;14.50;99.90;;;;;;5092468;28;20036;-63
2022/05/30 09:09:43;;;;;;;2.67;1.13;;;14.60;99.90;;;;;;5092934;28;20522;-63
2022/05/30 09:12:36;;;;;;;1.77;1.13;;;14.60;99.90;;;;;;5092755;28;20172;-63
2022/05/30 09:15:17;;;;;;;1.85;1.08;;;14.50;99.90;;;;;;5092944;28;20488;-63
2022/05/30 09:17:44;;;;;;;1.88;1.23;;;14.50;99.90;;;;;;5092729;28;20040;-63
2022/05/30 09:20:15;;;;;;;2.10;1.15;;;14.30;99.90;;;;;;5092762;28;20546;-66
2022/05/30 09:22:41;;;;;;;2.45;1.10;;;14.20;99.90;;;;;;5092532;28;20044;-65
2022/05/30 09:27:58;;;;;;;3.35;1.08;;;13.90;99.90;;;;;;5092509;28;20040;-65
2022/05/30 09:30:32;;;;;;;2.38;1.02;;;13.70;99.90;;;;;;5091947;28;20036;-63
2022/05/30 09:33:21;;;;;;;2.20;1.10;;;13.50;99.90;;;;;;5091540;28;20032;-63
2022/05/30 09:35:47;;;;;;;2.63;1.00;;;13.50;99.90;;;;;;5092581;28;20078;-63
2022/05/30 09:38:21;;;;;;;1.50;1.10;;;13.20;99.90;;;;;;5092623;28;20036;-63
2022/05/30 09:40:51;;;;;;;2.15;1.23;;;13.00;99.90;;;;;;5092380;28;20079;-63
2022/05/30 09:43:26;;;;;;;2.35;1.30;;;13.00;99.90;;;;;;5092638;28;20042;-63
2022/05/30 09:45:52;;;;;;;3.75;1.08;;;13.00;99.90;;;;;;5092457;28;20047;-63
2022/05/30 09:48:19;;;;;;;2.08;1.10;;;13.00;99.90;;;;;;5092275;28;20039;-63
2022/05/30 09:50:51;;;;;;;4.57;1.33;;;13.10;99.90;;;;;;5091876;28;20081;-63
2022/05/30 09:53:50;;;;;;;2.30;1.20;;;13.30;99.90;;;;;;5092188;28;20506;-63
2022/05/30 09:56:19;;;;;;;2.60;1.77;;;13.50;99.90;;;;;;5069297;28;20056;-63
2022/05/30 09:59:01;;;;;;;2.08;1.23;;;13.70;99.90;;;;;;5092321;28;20036;-63
2022/05/30 10:01:30;;;;;;;2.20;1.08;;;14.00;99.90;;;;;;5091635;28;20101;-63
2022/05/30 10:04:13;;;;;;;1.17;0.90;;;14.20;99.90;;;;;;5092325;28;20040;-63
2022/05/30 10:06:38;;;;;;;2.35;0.90;;;14.30;99.90;;;;;;5092133;28;20044;-63
2022/05/30 10:09:21;;;;;;;1.55;0.98;;;14.40;99.90;;;;;;5092122;28;20101;-64
2022/05/30 10:11:54;;;;;;;1.58;1.15;;;14.40;99.90;;;;;;5091415;28;20083;-63
2022/05/30 10:14:22;;;;;;;1.98;1.02;;;14.50;99.90;;;;;;5092000;28;20391;-63
2022/05/30 10:16:49;;;;;;;3.53;1.00;;;14.70;99.90;;;;;;5092154;28;20605;-63
2022/05/30 10:19:30;;;;;;;4.47;0.90;;;14.80;99.90;;;;;;5092026;28;20032;-63
2022/05/30 10:28:16;;;;;;;2.58;1.10;;;15.20;99.90;;;;;;5091849;28;20043;-64
2022/05/30 10:31:00;;;;;;;3.65;1.00;;;15.20;99.90;;;;;;5091469;28;20044;-63
2022/05/30 10:33:59;;;;;;;1.45;0.80;;;15.30;99.90;;;;;;5091633;28;20407;-63
2022/05/30 10:36:31;;;;;;;2.15;1.10;;;15.60;99.90;;;;;;5091682;28;20043;-63
2022/05/30 10:39:13;;;;;;;1.65;0.95;;;15.60;99.90;;;;;;5090963;28;20523;-63
2022/05/30 10:41:48;;;;;;;4.38;1.30;;;15.70;99.90;;;;;;5087989;28;20050;-63
2022/05/30 10:44:40;;;;;;;2.22;1.20;;;15.60;99.90;;;;;;5091580;28;20036;-63
2022/05/30 10:47:35;;;;;;;3.85;1.40;;;15.50;99.90;;;;;;5091113;28;20059;-64
2022/05/30 10:50:13;;;;;;;3.35;1.13;;;15.60;99.90;;;;;;5090504;28;20115;-63
2022/05/30 10:52:48;;;;;;;2.65;1.40;;;15.80;99.90;;;;;;5091366;28;20038;-63
2022/05/30 10:55:25;;;;;;;4.03;1.52;;;15.80;99.90;;;;;;5091622;28;20041;-63
2022/05/30 10:57:59;;;;;;;3.03;1.70;;;15.80;99.90;;;;;;5091739;28;20040;-63
2022/05/30 11:00:57;;;;;;;2.72;1.38;;;15.60;99.90;;;;;;5091790;28;20055;-63
2022/05/30 11:03:27;;;;;;;3.58;1.70;;;15.50;99.20;;;;;;5083268;28;20076;-63
2022/05/30 11:06:10;;;;;;;2.60;1.40;;;15.50;99.90;;;;;;5091329;28;20078;-63
2022/05/30 11:08:57;;;;;;;2.85;1.60;;;15.60;99.90;;;;;;5091718;28;20047;-63
2022/05/30 11:11:28;;;;;;;1.58;1.30;;;15.70;99.90;;;;;;5090994;28;20415;-63
2022/05/30 11:14:10;;;;;;;2.65;1.40;;;15.70;99.90;;;;;;5091417;28;20036;-63
2022/05/30 11:16:45;;;;;;;1.65;1.23;;;15.80;99.90;;;;;;5092151;28;20036;-63
2022/05/30 11:19:24;;;;;;;2.95;1.40;;;15.80;99.90;;;;;;5095028;28;20044;-63
2022/05/30 11:22:03;;;;;;;1.35;1.13;;;15.80;99.90;;;;;;5094582;28;20419;-63
2022/05/30 11:24:30;;;;;;;3.03;1.20;;;15.80;99.90;;;;;;5094341;28;20036;-63
2022/05/30 11:27:22;;;;;;;2.83;1.10;;;15.90;99.90;;;;;;5093994;28;20044;-63
2022/05/30 11:30:11;;;;;;;1.98;0.95;;;15.80;99.20;;;;;;5094667;28;20040;-63
2022/05/30 11:33:01;;;;;;;3.63;1.38;;;15.90;99.90;;;;;;5094198;28;20046;-63
2022/05/30 11:35:27;;;;;;;2.25;1.02;;;15.90;99.90;;;;;;5094490;28;20115;-63
2022/05/30 11:38:22;;;;;;;3.17;0.93;;;15.80;99.90;;;;;;5094392;28;20115;-63
2022/05/30 11:40:56;;;;;;;4.18;1.50;;;15.60;99.90;;;;;;5092956;28;20044;-63
2022/05/30 11:43:47;;;;;;;2.72;1.45;;;15.40;99.90;;;;;;5093896;28;20067;-63
2022/05/30 11:46:28;;;;;;;2.92;1.80;;;15.20;99.90;;;;;;5070444;28;20531;-63
2022/05/30 11:49:22;;;;;;;4.20;1.70;;;15.10;99.90;;;;;;5089232;28;20425;-63
2022/05/30 11:52:00;;;;;;;6.90;1.60;;;15.10;99.90;;;;;;5093845;28;20048;-63
2022/05/30 11:54:55;;;;;;;1.90;1.40;;;15.10;99.90;;;;;;5094507;28;20036;-63
2022/05/30 11:57:44;;;;;;;3.22;1.45;;;15.00;99.90;;;;;;5094534;28;20040;-63
2022/05/30 12:00:17;;;;;;;3.35;1.42;;;15.10;99.90;;;;;;5094345;28;20124;-63
2022/05/30 12:02:58;;;;;;;5.40;1.33;;;15.20;99.90;;;;;;5094282;28;20040;-63
2022/05/30 12:05:52;;;;;;;1.30;1.20;;;15.30;99.90;;;;;;5094407;28;20044;-63
2022/05/30 12:08:48;;;;;;;1.77;1.10;;;15.40;99.90;;;;;;5094175;28;20051;-63
2022/05/30 12:11:27;;;;;;;2.72;1.30;;;15.40;99.80;;;;;;5094068;28;20070;-63
2022/05/30 12:14:05;;;;;;;2.78;1.42;;;15.50;99.60;;;;;;5094655;28;20032;-63
2022/05/30 12:16:52;;;;;;;4.45;1.02;;;15.50;99.90;;;;;;5094098;28;20127;-63
2022/05/30 12:25:34;;;;;;;1.92;1.15;;;15.50;99.90;;;;;;5093875;28;20443;-64
2022/05/30 12:28:01;;;;;;;1.45;1.10;;;15.40;99.70;;;;;;5093983;28;20039;-63
2022/05/30 12:30:35;;;;;;;2.28;1.15;;;15.30;99.90;;;;;;5093851;28;20036;-62
2022/05/30 12:33:21;;;;;;;3.22;1.10;;;15.00;99.70;;;;;;5094281;28;20089;-63
2022/05/30 12:35:53;;;;;;;2.38;1.10;;;14.70;99.90;;;;;;5093971;28;20097;-64
2022/05/30 12:38:18;;;;;;;;;;;14.40;99.90;;;;;;5093977;28;20419;-62
2022/05/30 12:40:52;;;;;;;3.20;1.88;;;14.20;99.90;;;;;;5093500;28;20003;-64
2022/05/30 12:43:22;;;;;;;4.00;1.52;;;14.10;99.90;;;;;;5093538;28;20530;-63
2022/05/30 12:45:57;;;;;;;2.17;1.30;;;13.80;99.90;;;;;;5093338;28;20124;-63
2022/05/30 12:48:53;;;;;;;2.83;1.40;;;13.60;99.90;;;;;;5093698;28;20044;-63
2022/05/30 12:51:40;;;;;;;2.58;1.30;;;13.40;99.90;;;;;;5093103;28;20119;-64
2022/05/30 12:54:05;;;;;;;3.50;1.52;;;13.40;99.90;;;;;;5093270;28;20044;-63
2022/05/30 12:56:37;;;;;;;3.90;1.40;;;13.40;99.90;;;;;;5107266;22;20523;-64
2022/05/30 12:59:02;;;;;;;;;;;13.50;99.90;;;;;;5053611;28;20045;-64
2022/05/30 13:01:43;;;;;;;3.47;1.60;;;13.50;99.90;;;;;;5052961;28;19924;-63
2022/05/30 13:04:15;;;;;;;3.53;1.60;;;13.50;99.90;;;;;;5053005;28;20120;-63
2022/05/30 13:06:44;;;;;;;;;;;13.60;99.90;;;;;;5052966;28;20099;-64
2022/05/30 13:09:20;;;;;;;2.63;1.50;;;13.70;99.90;;;;;;5053043;28;19916;-64
2022/05/30 13:12:12;;;;;;;1.83;1.27;;;13.90;99.90;;;;;;5052583;28;20169;-64
2022/05/30 13:14:39;;;;;;;5.05;1.50;;;14.10;99.90;;;;;;5052785;28;20045;-63
2022/05/30 13:17:11;;;;;;;4.85;1.40;;;14.40;99.90;;;;;;5051384;28;20052;-64
2022/05/30 13:19:43;;;;;;;2.05;1.50;;;14.60;99.90;;;;;;5031642;28;20045;-64
2022/05/30 13:22:09;;;;;;;2.92;1.40;;;15.00;99.90;;;;;;5051012;28;20059;-65
2022/05/30 13:24:37;;;;;;;1.98;1.40;;;15.30;99.90;;;;;;5040504;28;20481;-65
2022/05/30 13:27:04;;;;;;;3.95;1.80;;;15.70;99.90;;;;;;5049058;28;20041;-65
2022/05/30 13:29:35;;;;;;;2.55;1.55;;;16.40;99.90;;;;;;5041955;28;20029;-65
2022/05/30 13:32:04;;;;;;;2.80;1.33;;;17.20;99.90;;;;;;5029460;28;20099;-66
2022/05/30 13:34:32;;;;;;;3.25;1.60;;;17.70;99.90;;;;;;5051458;28;20060;-66
2022/05/30 13:36:59;;;;;;;4.72;1.70;;;18.10;99.90;;;;;;5051763;28;20072;-65
2022/05/30 13:39:26;;;;;;;2.97;1.30;;;19.00;99.90;;;;;;5043296;28;20423;-66
2022/05/30 13:41:53;;;;;;;2.47;1.40;;;19.20;99.90;;;;;;5051083;28;20037;-66
2022/05/30 13:44:26;;;;;;;1.77;1.20;;;19.20;99.90;;;;;;5047379;28;20072;-67
2022/05/30 13:47:00;;;;;;;2.33;1.10;;;19.20;97.20;;;;;;5026529;28;20073;-66
2022/05/30 13:49:32;;;;;;;2.50;1.05;;;19.20;96.90;;;;;;5050436;28;20076;-67
2022/05/30 13:52:00;;;;;;;3.03;0.73;;;18.90;96.00;;;;;;5051541;28;20057;-67
2022/05/30 13:54:27;;;;;;;2.25;0.80;;;18.70;96.60;;;;;;5022418;28;20478;-68
2022/05/30 13:56:56;;;;;;;1.13;0.80;;;18.50;96.80;;;;;;5030973;28;20028;-67
2022/05/30 13:59:43;;;;;;;2.22;0.60;;;18.20;97.00;;;;;;5051574;28;20033;-66
2022/05/30 14:02:17;;;;;;;1.27;0.65;;;18.10;96.90;;;;;;5038422;28;20042;-67
2022/05/30 14:04:49;;;;;;;0.85;0.60;;;18.00;95.80;;;;;;5050906;28;20079;-66
2022/05/30 14:07:19;;;;;;;1.83;0.73;;;18.10;94.30;;;;;;5050701;28;20554;-66
2022/05/30 14:09:47;;;;;;;1.27;0.80;;;18.20;95.80;;;;;;5041630;28;20128;-66